sensor_id;sensor_type;location;lat;lon;timestamp;P1;durP1;ratioP1;P2;durP2;ratioP2
68614;SDS011;55593;51.994;5.882;2023-05-10T00:00:09;38.28;;;25.08;;
68614;SDS011;55593;51.994;5.882;2023-05-10T00:02:41;42.00;;;26.27;;
68614;SDS011;55593;51.994;5.882;2023-05-10T00:05:14;43.78;;;28.15;;
68614;SDS011;55593;51.994;5.882;2023-05-10T00:07:43;50.67;;;28.38;;
68614;SDS011;55593;51.994;5.882;2023-05-10T00:10:13;47.88;;;28.08;;
68614;SDS011;55593;51.994;5.882;2023-05-10T00:12:42;53.80;;;29.45;;
68614;SDS011;55593;51.994;5.882;2023-05-10T00:15:11;53.47;;;28.83;;
68614;SDS011;55593;51.994;5.882;2023-05-10T00:17:40;51.50;;;30.65;;
68614;SDS011;55593;51.994;5.882;2023-05-10T00:20:14;56.65;;;31.80;;
68614;SDS011;55593;51.994;5.882;2023-05-10T00:22:43;55.88;;;30.95;;
68614;SDS011;55593;51.994;5.882;2023-05-10T00:25:12;56.78;;;30.38;;
68614;SDS011;55593;51.994;5.882;2023-05-10T00:27:41;60.15;;;32.38;;
68614;SDS011;55593;51.994;5.882;2023-05-10T00:30:11;52.70;;;30.80;;
68614;SDS011;55593;51.994;5.882;2023-05-10T00:32:40;56.85;;;31.98;;
68614;SDS011;55593;51.994;5.882;2023-05-10T00:35:09;59.00;;;31.98;;
68614;SDS011;55593;51.994;5.882;2023-05-10T00:37:41;61.03;;;33.17;;
68614;SDS011;55593;51.994;5.882;2023-05-10T00:40:11;65.05;;;34.30;;
68614;SDS011;55593;51.994;5.882;2023-05-10T00:42:43;72.15;;;35.47;;
68614;SDS011;55593;51.994;5.882;2023-05-10T00:45:13;67.97;;;35.10;;
68614;SDS011;55593;51.994;5.882;2023-05-10T00:47:42;73.25;;;36.67;;
68614;SDS011;55593;51.994;5.882;2023-05-10T00:50:11;68.50;;;39.08;;
68614;SDS011;55593;51.994;5.882;2023-05-10T00:52:43;72.30;;;39.45;;
68614;SDS011;55593;51.994;5.882;2023-05-10T00:55:13;83.70;;;39.95;;
68614;SDS011;55593;51.994;5.882;2023-05-10T00:57:42;66.95;;;36.28;;
68614;SDS011;55593;51.994;5.882;2023-05-10T01:00:12;80.75;;;40.80;;
68614;SDS011;55593;51.994;5.882;2023-05-10T01:02:44;77.15;;;40.13;;
68614;SDS011;55593;51.994;5.882;2023-05-10T01:05:13;76.97;;;40.67;;
68614;SDS011;55593;51.994;5.882;2023-05-10T01:07:45;83.78;;;42.55;;
68614;SDS011;55593;51.994;5.882;2023-05-10T01:10:14;75.60;;;42.28;;
68614;SDS011;55593;51.994;5.882;2023-05-10T01:12:45;94.82;;;44.90;;
68614;SDS011;55593;51.994;5.882;2023-05-10T01:15:15;80.55;;;43.25;;
68614;SDS011;55593;51.994;5.882;2023-05-10T01:17:45;104.70;;;48.78;;
68614;SDS011;55593;51.994;5.882;2023-05-10T01:20:15;84.65;;;45.45;;
68614;SDS011;55593;51.994;5.882;2023-05-10T01:23:00;90.47;;;47.22;;
68614;SDS011;55593;51.994;5.882;2023-05-10T01:28:39;88.80;;;45.58;;
68614;SDS011;55593;51.994;5.882;2023-05-10T01:34:40;99.63;;;48.85;;
68614;SDS011;55593;51.994;5.882;2023-05-10T01:37:13;106.80;;;48.97;;
68614;SDS011;55593;51.994;5.882;2023-05-10T01:39:45;88.50;;;46.50;;
68614;SDS011;55593;51.994;5.882;2023-05-10T01:42:18;101.78;;;48.35;;
68614;SDS011;55593;51.994;5.882;2023-05-10T01:44:54;110.20;;;49.20;;
68614;SDS011;55593;51.994;5.882;2023-05-10T01:47:31;92.70;;;47.03;;
68614;SDS011;55593;51.994;5.882;2023-05-10T01:50:04;115.07;;;50.03;;
68614;SDS011;55593;51.994;5.882;2023-05-10T01:52:38;89.65;;;47.33;;
68614;SDS011;55593;51.994;5.882;2023-05-10T01:55:13;91.10;;;46.05;;
68614;SDS011;55593;51.994;5.882;2023-05-10T01:57:44;92.85;;;46.03;;
68614;SDS011;55593;51.994;5.882;2023-05-10T02:00:14;87.60;;;42.95;;
68614;SDS011;55593;51.994;5.882;2023-05-10T02:02:47;93.47;;;43.80;;
68614;SDS011;55593;51.994;5.882;2023-05-10T02:05:17;83.70;;;40.83;;
68614;SDS011;55593;51.994;5.882;2023-05-10T02:07:47;82.07;;;42.85;;
68614;SDS011;55593;51.994;5.882;2023-05-10T02:10:18;83.43;;;42.05;;
68614;SDS011;55593;51.994;5.882;2023-05-10T02:12:47;90.78;;;42.08;;
68614;SDS011;55593;51.994;5.882;2023-05-10T02:15:18;116.85;;;44.05;;
68614;SDS011;55593;51.994;5.882;2023-05-10T02:17:53;86.90;;;42.03;;
68614;SDS011;55593;51.994;5.882;2023-05-10T02:20:24;82.72;;;41.80;;
68614;SDS011;55593;51.994;5.882;2023-05-10T02:22:54;97.65;;;43.67;;
68614;SDS011;55593;51.994;5.882;2023-05-10T02:25:24;79.80;;;40.03;;
68614;SDS011;55593;51.994;5.882;2023-05-10T02:30:38;103.97;;;42.50;;
68614;SDS011;55593;51.994;5.882;2023-05-10T02:33:10;91.43;;;42.95;;
68614;SDS011;55593;51.994;5.882;2023-05-10T02:35:40;101.95;;;42.40;;
68614;SDS011;55593;51.994;5.882;2023-05-10T02:38:09;109.65;;;46.78;;
68614;SDS011;55593;51.994;5.882;2023-05-10T02:40:40;105.93;;;44.28;;
68614;SDS011;55593;51.994;5.882;2023-05-10T02:43:12;96.15;;;43.88;;
68614;SDS011;55593;51.994;5.882;2023-05-10T02:45:42;94.28;;;43.50;;
68614;SDS011;55593;51.994;5.882;2023-05-10T02:48:15;115.88;;;44.47;;
68614;SDS011;55593;51.994;5.882;2023-05-10T02:50:45;103.15;;;45.30;;
68614;SDS011;55593;51.994;5.882;2023-05-10T02:53:18;96.80;;;44.65;;
68614;SDS011;55593;51.994;5.882;2023-05-10T02:55:51;88.35;;;40.63;;
68614;SDS011;55593;51.994;5.882;2023-05-10T02:58:21;97.95;;;44.72;;
68614;SDS011;55593;51.994;5.882;2023-05-10T03:00:51;105.88;;;42.70;;
68614;SDS011;55593;51.994;5.882;2023-05-10T03:03:22;100.75;;;44.20;;
68614;SDS011;55593;51.994;5.882;2023-05-10T03:05:52;102.97;;;44.03;;
68614;SDS011;55593;51.994;5.882;2023-05-10T03:08:22;102.00;;;45.60;;
68614;SDS011;55593;51.994;5.882;2023-05-10T03:10:56;93.72;;;43.50;;
68614;SDS011;55593;51.994;5.882;2023-05-10T03:13:39;95.80;;;43.85;;
68614;SDS011;55593;51.994;5.882;2023-05-10T03:16:25;100.30;;;45.03;;
68614;SDS011;55593;51.994;5.882;2023-05-10T03:19:01;93.65;;;42.72;;
68614;SDS011;55593;51.994;5.882;2023-05-10T03:21:34;104.72;;;43.75;;
68614;SDS011;55593;51.994;5.882;2023-05-10T03:24:07;100.65;;;44.70;;
68614;SDS011;55593;51.994;5.882;2023-05-10T03:26:37;105.15;;;44.90;;
68614;SDS011;55593;51.994;5.882;2023-05-10T03:29:17;102.88;;;44.17;;
68614;SDS011;55593;51.994;5.882;2023-05-10T03:31:47;82.05;;;40.30;;
68614;SDS011;55593;51.994;5.882;2023-05-10T03:34:19;94.55;;;42.38;;
68614;SDS011;55593;51.994;5.882;2023-05-10T03:36:52;92.95;;;42.45;;
68614;SDS011;55593;51.994;5.882;2023-05-10T03:39:22;94.55;;;44.80;;
68614;SDS011;55593;51.994;5.882;2023-05-10T03:41:56;98.82;;;45.47;;
68614;SDS011;55593;51.994;5.882;2023-05-10T03:44:25;87.55;;;41.72;;
68614;SDS011;55593;51.994;5.882;2023-05-10T03:46:54;89.70;;;42.53;;
68614;SDS011;55593;51.994;5.882;2023-05-10T03:49:26;93.45;;;43.55;;
68614;SDS011;55593;51.994;5.882;2023-05-10T03:51:56;97.70;;;47.00;;
68614;SDS011;55593;51.994;5.882;2023-05-10T03:54:26;96.28;;;46.80;;
68614;SDS011;55593;51.994;5.882;2023-05-10T03:56:55;98.25;;;46.70;;
68614;SDS011;55593;51.994;5.882;2023-05-10T03:59:24;102.82;;;50.25;;
68614;SDS011;55593;51.994;5.882;2023-05-10T04:01:54;96.53;;;46.50;;
68614;SDS011;55593;51.994;5.882;2023-05-10T04:04:25;103.47;;;47.50;;
68614;SDS011;55593;51.994;5.882;2023-05-10T04:06:55;94.25;;;46.03;;
68614;SDS011;55593;51.994;5.882;2023-05-10T04:09:24;99.65;;;46.55;;
68614;SDS011;55593;51.994;5.882;2023-05-10T04:11:53;96.10;;;47.97;;
68614;SDS011;55593;51.994;5.882;2023-05-10T04:14:23;94.55;;;43.83;;
68614;SDS011;55593;51.994;5.882;2023-05-10T04:16:52;111.53;;;47.83;;
68614;SDS011;55593;51.994;5.882;2023-05-10T04:19:21;88.30;;;44.30;;
68614;SDS011;55593;51.994;5.882;2023-05-10T04:21:53;100.18;;;46.83;;
68614;SDS011;55593;51.994;5.882;2023-05-10T04:24:22;85.57;;;43.30;;
68614;SDS011;55593;51.994;5.882;2023-05-10T04:26:51;97.28;;;42.28;;
68614;SDS011;55593;51.994;5.882;2023-05-10T04:29:20;87.97;;;42.35;;
68614;SDS011;55593;51.994;5.882;2023-05-10T04:31:50;86.63;;;42.70;;
68614;SDS011;55593;51.994;5.882;2023-05-10T04:34:20;104.75;;;43.25;;
68614;SDS011;55593;51.994;5.882;2023-05-10T04:36:49;83.70;;;40.00;;
68614;SDS011;55593;51.994;5.882;2023-05-10T04:39:21;86.45;;;42.00;;
68614;SDS011;55593;51.994;5.882;2023-05-10T04:41:51;90.97;;;42.13;;
68614;SDS011;55593;51.994;5.882;2023-05-10T04:44:20;95.22;;;41.95;;
68614;SDS011;55593;51.994;5.882;2023-05-10T04:46:49;96.32;;;44.65;;
68614;SDS011;55593;51.994;5.882;2023-05-10T04:49:18;109.20;;;43.83;;
68614;SDS011;55593;51.994;5.882;2023-05-10T04:51:47;100.20;;;43.75;;
68614;SDS011;55593;51.994;5.882;2023-05-10T04:54:17;95.78;;;42.75;;
68614;SDS011;55593;51.994;5.882;2023-05-10T04:56:48;87.85;;;41.53;;
68614;SDS011;55593;51.994;5.882;2023-05-10T04:59:17;91.97;;;42.42;;
68614;SDS011;55593;51.994;5.882;2023-05-10T05:01:47;86.78;;;41.88;;
68614;SDS011;55593;51.994;5.882;2023-05-10T05:04:16;103.82;;;44.95;;
68614;SDS011;55593;51.994;5.882;2023-05-10T05:06:45;110.90;;;46.22;;
68614;SDS011;55593;51.994;5.882;2023-05-10T05:09:14;101.05;;;41.30;;
68614;SDS011;55593;51.994;5.882;2023-05-10T05:11:43;81.20;;;40.33;;
68614;SDS011;55593;51.994;5.882;2023-05-10T05:14:15;92.95;;;40.90;;
68614;SDS011;55593;51.994;5.882;2023-05-10T05:16:46;97.65;;;43.75;;
68614;SDS011;55593;51.994;5.882;2023-05-10T05:19:15;92.18;;;42.45;;
68614;SDS011;55593;51.994;5.882;2023-05-10T05:21:44;95.47;;;42.65;;
68614;SDS011;55593;51.994;5.882;2023-05-10T05:24:14;98.93;;;41.20;;
68614;SDS011;55593;51.994;5.882;2023-05-10T05:26:43;78.82;;;36.58;;
68614;SDS011;55593;51.994;5.882;2023-05-10T05:29:14;88.72;;;41.13;;
68614;SDS011;55593;51.994;5.882;2023-05-10T05:31:44;89.22;;;41.13;;
68614;SDS011;55593;51.994;5.882;2023-05-10T05:34:13;82.70;;;40.10;;
68614;SDS011;55593;51.994;5.882;2023-05-10T05:36:42;87.80;;;41.05;;
68614;SDS011;55593;51.994;5.882;2023-05-10T05:39:11;92.85;;;42.45;;
68614;SDS011;55593;51.994;5.882;2023-05-10T05:41:40;86.25;;;39.92;;
68614;SDS011;55593;51.994;5.882;2023-05-10T05:44:09;89.60;;;41.47;;
68614;SDS011;55593;51.994;5.882;2023-05-10T05:46:41;89.13;;;40.97;;
68614;SDS011;55593;51.994;5.882;2023-05-10T05:49:10;83.80;;;39.90;;
68614;SDS011;55593;51.994;5.882;2023-05-10T05:51:40;92.18;;;41.45;;
68614;SDS011;55593;51.994;5.882;2023-05-10T05:54:09;86.38;;;40.00;;
68614;SDS011;55593;51.994;5.882;2023-05-10T05:56:38;84.80;;;37.63;;
68614;SDS011;55593;51.994;5.882;2023-05-10T05:59:07;80.10;;;39.40;;
68614;SDS011;55593;51.994;5.882;2023-05-10T06:01:36;90.07;;;39.78;;
68614;SDS011;55593;51.994;5.882;2023-05-10T06:04:08;102.53;;;41.22;;
68614;SDS011;55593;51.994;5.882;2023-05-10T06:06:38;90.53;;;41.13;;
68614;SDS011;55593;51.994;5.882;2023-05-10T06:09:08;94.57;;;41.45;;
68614;SDS011;55593;51.994;5.882;2023-05-10T06:11:37;96.75;;;39.83;;
68614;SDS011;55593;51.994;5.882;2023-05-10T06:14:06;90.97;;;39.20;;
68614;SDS011;55593;51.994;5.882;2023-05-10T06:16:35;93.68;;;39.95;;
68614;SDS011;55593;51.994;5.882;2023-05-10T06:19:04;98.40;;;40.25;;
68614;SDS011;55593;51.994;5.882;2023-05-10T06:21:36;90.90;;;38.70;;
68614;SDS011;55593;51.994;5.882;2023-05-10T06:24:06;89.50;;;38.22;;
68614;SDS011;55593;51.994;5.882;2023-05-10T06:26:35;86.97;;;39.22;;
68614;SDS011;55593;51.994;5.882;2023-05-10T06:29:04;101.80;;;42.53;;
68614;SDS011;55593;51.994;5.882;2023-05-10T06:31:33;100.45;;;40.88;;
68614;SDS011;55593;51.994;5.882;2023-05-10T06:34:02;104.88;;;41.03;;
68614;SDS011;55593;51.994;5.882;2023-05-10T06:36:36;98.72;;;39.95;;
68614;SDS011;55593;51.994;5.882;2023-05-10T06:39:05;91.30;;;39.72;;
68614;SDS011;55593;51.994;5.882;2023-05-10T06:41:34;95.50;;;41.38;;
68614;SDS011;55593;51.994;5.882;2023-05-10T06:44:03;95.85;;;40.15;;
68614;SDS011;55593;51.994;5.882;2023-05-10T06:46:33;101.82;;;40.17;;
68614;SDS011;55593;51.994;5.882;2023-05-10T06:49:02;98.15;;;40.30;;
68614;SDS011;55593;51.994;5.882;2023-05-10T06:51:31;90.65;;;41.47;;
68614;SDS011;55593;51.994;5.882;2023-05-10T06:54:03;86.95;;;40.40;;
68614;SDS011;55593;51.994;5.882;2023-05-10T06:56:32;99.20;;;43.28;;
68614;SDS011;55593;51.994;5.882;2023-05-10T06:59:01;93.00;;;43.10;;
68614;SDS011;55593;51.994;5.882;2023-05-10T07:01:31;119.78;;;45.22;;
68614;SDS011;55593;51.994;5.882;2023-05-10T07:04:00;88.60;;;43.10;;
68614;SDS011;55593;51.994;5.882;2023-05-10T07:06:29;108.18;;;47.28;;
68614;SDS011;55593;51.994;5.882;2023-05-10T07:08:59;100.55;;;45.45;;
68614;SDS011;55593;51.994;5.882;2023-05-10T07:11:31;91.90;;;45.15;;
68614;SDS011;55593;51.994;5.882;2023-05-10T07:14:00;105.53;;;46.78;;
68614;SDS011;55593;51.994;5.882;2023-05-10T07:16:29;96.35;;;44.80;;
68614;SDS011;55593;51.994;5.882;2023-05-10T07:18:58;92.32;;;42.95;;
68614;SDS011;55593;51.994;5.882;2023-05-10T07:21:28;109.72;;;45.72;;
68614;SDS011;55593;51.994;5.882;2023-05-10T07:23:57;115.38;;;46.78;;
68614;SDS011;55593;51.994;5.882;2023-05-10T07:26:26;93.60;;;43.38;;
68614;SDS011;55593;51.994;5.882;2023-05-10T07:28:58;91.60;;;43.65;;
68614;SDS011;55593;51.994;5.882;2023-05-10T07:31:28;110.50;;;45.28;;
68614;SDS011;55593;51.994;5.882;2023-05-10T07:33:57;93.47;;;43.60;;
68614;SDS011;55593;51.994;5.882;2023-05-10T07:36:26;98.75;;;44.65;;
68614;SDS011;55593;51.994;5.882;2023-05-10T07:38:55;92.20;;;42.47;;
68614;SDS011;55593;51.994;5.882;2023-05-10T07:41:25;93.20;;;42.08;;
68614;SDS011;55593;51.994;5.882;2023-05-10T07:43:54;91.65;;;42.33;;
68614;SDS011;55593;51.994;5.882;2023-05-10T07:46:25;86.05;;;39.83;;
68614;SDS011;55593;51.994;5.882;2023-05-10T07:48:55;100.78;;;41.15;;
68614;SDS011;55593;51.994;5.882;2023-05-10T07:51:24;89.22;;;40.55;;
68614;SDS011;55593;51.994;5.882;2023-05-10T07:53:53;84.35;;;40.63;;
68614;SDS011;55593;51.994;5.882;2023-05-10T07:56:24;94.32;;;42.58;;
68614;SDS011;55593;51.994;5.882;2023-05-10T07:58:55;86.65;;;39.67;;
68614;SDS011;55593;51.994;5.882;2023-05-10T08:01:29;73.57;;;36.45;;
68614;SDS011;55593;51.994;5.882;2023-05-10T08:04:00;85.55;;;39.20;;
68614;SDS011;55593;51.994;5.882;2023-05-10T08:06:29;83.18;;;38.38;;
68614;SDS011;55593;51.994;5.882;2023-05-10T08:08:58;77.38;;;38.60;;
68614;SDS011;55593;51.994;5.882;2023-05-10T08:11:30;78.80;;;38.47;;
68614;SDS011;55593;51.994;5.882;2023-05-10T08:13:59;87.38;;;40.30;;
68614;SDS011;55593;51.994;5.882;2023-05-10T08:16:31;89.60;;;40.85;;
68614;SDS011;55593;51.994;5.882;2023-05-10T08:19:00;74.38;;;35.40;;
68614;SDS011;55593;51.994;5.882;2023-05-10T08:21:30;79.72;;;36.83;;
68614;SDS011;55593;51.994;5.882;2023-05-10T08:23:59;81.40;;;37.35;;
68614;SDS011;55593;51.994;5.882;2023-05-10T08:26:29;77.35;;;37.00;;
68614;SDS011;55593;51.994;5.882;2023-05-10T08:28:58;80.32;;;37.53;;
68614;SDS011;55593;51.994;5.882;2023-05-10T08:31:27;74.57;;;36.40;;
68614;SDS011;55593;51.994;5.882;2023-05-10T08:33:59;72.35;;;35.65;;
68614;SDS011;55593;51.994;5.882;2023-05-10T08:36:28;68.55;;;35.50;;
68614;SDS011;55593;51.994;5.882;2023-05-10T08:38:57;59.22;;;32.30;;
68614;SDS011;55593;51.994;5.882;2023-05-10T08:41:27;67.35;;;33.67;;
68614;SDS011;55593;51.994;5.882;2023-05-10T08:43:56;58.60;;;29.50;;
68614;SDS011;55593;51.994;5.882;2023-05-10T08:46:27;58.17;;;30.55;;
68614;SDS011;55593;51.994;5.882;2023-05-10T08:48:59;54.83;;;28.20;;
68614;SDS011;55593;51.994;5.882;2023-05-10T08:51:31;52.72;;;26.05;;
68614;SDS011;55593;51.994;5.882;2023-05-10T08:54:05;52.45;;;26.50;;
68614;SDS011;55593;51.994;5.882;2023-05-10T08:56:34;54.00;;;28.17;;
68614;SDS011;55593;51.994;5.882;2023-05-10T08:59:03;40.97;;;22.95;;
68614;SDS011;55593;51.994;5.882;2023-05-10T09:01:32;40.60;;;23.88;;
68614;SDS011;55593;51.994;5.882;2023-05-10T09:04:06;43.25;;;23.60;;
68614;SDS011;55593;51.994;5.882;2023-05-10T09:06:35;38.70;;;23.05;;
68614;SDS011;55593;51.994;5.882;2023-05-10T09:09:05;40.70;;;23.17;;
68614;SDS011;55593;51.994;5.882;2023-05-10T09:11:34;40.33;;;22.13;;
68614;SDS011;55593;51.994;5.882;2023-05-10T09:14:03;38.88;;;21.30;;
68614;SDS011;55593;51.994;5.882;2023-05-10T09:16:33;39.05;;;19.20;;
68614;SDS011;55593;51.994;5.882;2023-05-10T09:19:02;31.67;;;19.25;;
68614;SDS011;55593;51.994;5.882;2023-05-10T09:21:36;24.23;;;16.02;;
68614;SDS011;55593;51.994;5.882;2023-05-10T09:24:06;29.42;;;16.67;;
68614;SDS011;55593;51.994;5.882;2023-05-10T09:26:39;23.27;;;15.38;;
68614;SDS011;55593;51.994;5.882;2023-05-10T09:29:15;23.92;;;13.57;;
68614;SDS011;55593;51.994;5.882;2023-05-10T09:31:45;24.13;;;14.15;;
68614;SDS011;55593;51.994;5.882;2023-05-10T09:34:17;23.83;;;14.82;;
68614;SDS011;55593;51.994;5.882;2023-05-10T09:36:56;22.85;;;14.85;;
68614;SDS011;55593;51.994;5.882;2023-05-10T09:39:32;24.30;;;14.98;;
68614;SDS011;55593;51.994;5.882;2023-05-10T09:42:04;20.10;;;14.05;;
68614;SDS011;55593;51.994;5.882;2023-05-10T09:44:34;28.48;;;16.05;;
68614;SDS011;55593;51.994;5.882;2023-05-10T09:47:04;20.42;;;12.90;;
68614;SDS011;55593;51.994;5.882;2023-05-10T09:49:33;18.73;;;13.73;;
68614;SDS011;55593;51.994;5.882;2023-05-10T09:52:06;19.45;;;12.80;;
68614;SDS011;55593;51.994;5.882;2023-05-10T09:54:36;21.30;;;13.27;;
68614;SDS011;55593;51.994;5.882;2023-05-10T09:57:05;21.65;;;13.00;;
68614;SDS011;55593;51.994;5.882;2023-05-10T09:59:34;21.35;;;12.63;;
68614;SDS011;55593;51.994;5.882;2023-05-10T10:02:03;19.38;;;12.15;;
68614;SDS011;55593;51.994;5.882;2023-05-10T10:04:33;20.70;;;13.35;;
68614;SDS011;55593;51.994;5.882;2023-05-10T10:07:10;23.55;;;12.57;;
68614;SDS011;55593;51.994;5.882;2023-05-10T10:09:39;21.13;;;12.60;;
68614;SDS011;55593;51.994;5.882;2023-05-10T10:12:09;20.17;;;12.57;;
68614;SDS011;55593;51.994;5.882;2023-05-10T10:14:38;26.65;;;13.15;;
68614;SDS011;55593;51.994;5.882;2023-05-10T10:17:07;26.15;;;13.85;;
68614;SDS011;55593;51.994;5.882;2023-05-10T10:19:38;19.95;;;13.40;;
68614;SDS011;55593;51.994;5.882;2023-05-10T10:22:10;21.17;;;13.25;;
68614;SDS011;55593;51.994;5.882;2023-05-10T10:24:40;24.23;;;15.02;;
68614;SDS011;55593;51.994;5.882;2023-05-10T10:27:14;26.48;;;14.43;;
68614;SDS011;55593;51.994;5.882;2023-05-10T10:29:51;23.65;;;15.40;;
68614;SDS011;55593;51.994;5.882;2023-05-10T10:32:35;25.52;;;14.05;;
68614;SDS011;55593;51.994;5.882;2023-05-10T10:35:11;25.45;;;14.98;;
68614;SDS011;55593;51.994;5.882;2023-05-10T10:37:46;26.17;;;15.55;;
68614;SDS011;55593;51.994;5.882;2023-05-10T10:40:24;25.98;;;14.60;;
68614;SDS011;55593;51.994;5.882;2023-05-10T10:42:57;31.58;;;16.25;;
68614;SDS011;55593;51.994;5.882;2023-05-10T10:45:27;26.00;;;16.65;;
68614;SDS011;55593;51.994;5.882;2023-05-10T10:50:55;22.23;;;14.02;;
68614;SDS011;55593;51.994;5.882;2023-05-10T10:53:28;25.00;;;15.20;;
68614;SDS011;55593;51.994;5.882;2023-05-10T10:56:07;21.80;;;13.73;;
68614;SDS011;55593;51.994;5.882;2023-05-10T10:58:38;24.83;;;14.85;;
68614;SDS011;55593;51.994;5.882;2023-05-10T11:01:11;23.58;;;14.20;;
68614;SDS011;55593;51.994;5.882;2023-05-10T11:03:54;18.92;;;14.00;;
68614;SDS011;55593;51.994;5.882;2023-05-10T11:06:45;21.98;;;14.70;;
68614;SDS011;55593;51.994;5.882;2023-05-10T11:09:17;22.77;;;13.40;;
68614;SDS011;55593;51.994;5.882;2023-05-10T11:11:50;21.38;;;14.35;;
68614;SDS011;55593;51.994;5.882;2023-05-10T11:14:21;19.15;;;14.10;;
68614;SDS011;55593;51.994;5.882;2023-05-10T11:16:50;22.38;;;12.88;;
68614;SDS011;55593;51.994;5.882;2023-05-10T11:19:20;18.60;;;12.15;;
68614;SDS011;55593;51.994;5.882;2023-05-10T11:21:49;21.60;;;13.13;;
68614;SDS011;55593;51.994;5.882;2023-05-10T11:24:23;22.10;;;13.43;;
68614;SDS011;55593;51.994;5.882;2023-05-10T11:26:56;18.73;;;13.23;;
68614;SDS011;55593;51.994;5.882;2023-05-10T11:29:25;18.63;;;12.52;;
68614;SDS011;55593;51.994;5.882;2023-05-10T11:31:56;21.50;;;12.80;;
68614;SDS011;55593;51.994;5.882;2023-05-10T11:34:26;20.90;;;11.82;;
68614;SDS011;55593;51.994;5.882;2023-05-10T11:36:59;19.15;;;10.25;;
68614;SDS011;55593;51.994;5.882;2023-05-10T11:39:31;16.65;;;10.75;;
68614;SDS011;55593;51.994;5.882;2023-05-10T11:42:00;16.20;;;10.80;;
68614;SDS011;55593;51.994;5.882;2023-05-10T11:44:29;20.50;;;12.63;;
68614;SDS011;55593;51.994;5.882;2023-05-10T11:46:59;18.67;;;11.32;;
68614;SDS011;55593;51.994;5.882;2023-05-10T11:49:29;18.38;;;10.38;;
68614;SDS011;55593;51.994;5.882;2023-05-10T11:52:04;17.75;;;11.38;;
68614;SDS011;55593;51.994;5.882;2023-05-10T11:54:37;30.27;;;11.45;;
68614;SDS011;55593;51.994;5.882;2023-05-10T11:57:06;19.77;;;11.02;;
68614;SDS011;55593;51.994;5.882;2023-05-10T11:59:36;21.27;;;11.43;;
68614;SDS011;55593;51.994;5.882;2023-05-10T12:02:05;17.48;;;11.68;;
68614;SDS011;55593;51.994;5.882;2023-05-10T12:04:34;15.10;;;10.30;;
68614;SDS011;55593;51.994;5.882;2023-05-10T12:07:03;21.08;;;10.98;;
68614;SDS011;55593;51.994;5.882;2023-05-10T12:09:33;21.10;;;11.95;;
68614;SDS011;55593;51.994;5.882;2023-05-10T12:12:05;20.05;;;12.10;;
68614;SDS011;55593;51.994;5.882;2023-05-10T12:14:35;21.20;;;11.13;;
68614;SDS011;55593;51.994;5.882;2023-05-10T12:17:04;16.10;;;10.77;;
68614;SDS011;55593;51.994;5.882;2023-05-10T12:19:36;18.35;;;10.90;;
68614;SDS011;55593;51.994;5.882;2023-05-10T12:22:06;17.95;;;10.98;;
68614;SDS011;55593;51.994;5.882;2023-05-10T12:24:35;17.90;;;10.75;;
68614;SDS011;55593;51.994;5.882;2023-05-10T12:27:07;14.60;;;8.90;;
68614;SDS011;55593;51.994;5.882;2023-05-10T12:29:41;15.20;;;9.15;;
68614;SDS011;55593;51.994;5.882;2023-05-10T12:32:10;13.43;;;10.30;;
68614;SDS011;55593;51.994;5.882;2023-05-10T12:34:39;17.50;;;10.45;;
68614;SDS011;55593;51.994;5.882;2023-05-10T12:37:08;13.73;;;9.00;;
68614;SDS011;55593;51.994;5.882;2023-05-10T12:39:40;13.65;;;9.05;;
68614;SDS011;55593;51.994;5.882;2023-05-10T12:42:14;12.30;;;8.35;;
68614;SDS011;55593;51.994;5.882;2023-05-10T12:44:43;12.63;;;8.75;;
68614;SDS011;55593;51.994;5.882;2023-05-10T12:47:12;10.13;;;7.80;;
68614;SDS011;55593;51.994;5.882;2023-05-10T12:49:41;16.00;;;9.00;;
68614;SDS011;55593;51.994;5.882;2023-05-10T12:52:11;12.10;;;7.70;;
68614;SDS011;55593;51.994;5.882;2023-05-10T12:54:40;11.20;;;7.78;;
68614;SDS011;55593;51.994;5.882;2023-05-10T12:57:09;11.43;;;7.90;;
68614;SDS011;55593;51.994;5.882;2023-05-10T12:59:41;12.30;;;7.13;;
68614;SDS011;55593;51.994;5.882;2023-05-10T13:02:10;11.00;;;7.20;;
68614;SDS011;55593;51.994;5.882;2023-05-10T13:04:40;13.10;;;7.55;;
68614;SDS011;55593;51.994;5.882;2023-05-10T13:07:09;11.77;;;6.97;;
68614;SDS011;55593;51.994;5.882;2023-05-10T13:09:39;11.27;;;7.97;;
68614;SDS011;55593;51.994;5.882;2023-05-10T13:12:09;9.93;;;6.55;;
68614;SDS011;55593;51.994;5.882;2023-05-10T13:14:40;12.40;;;6.95;;
68614;SDS011;55593;51.994;5.882;2023-05-10T13:17:10;10.63;;;7.03;;
68614;SDS011;55593;51.994;5.882;2023-05-10T13:19:39;13.55;;;7.47;;
68614;SDS011;55593;51.994;5.882;2023-05-10T13:22:08;11.93;;;7.03;;
68614;SDS011;55593;51.994;5.882;2023-05-10T13:24:37;9.80;;;6.35;;
68614;SDS011;55593;51.994;5.882;2023-05-10T13:27:06;10.98;;;6.95;;
68614;SDS011;55593;51.994;5.882;2023-05-10T13:29:35;12.65;;;6.70;;
68614;SDS011;55593;51.994;5.882;2023-05-10T13:32:07;8.88;;;6.75;;
68614;SDS011;55593;51.994;5.882;2023-05-10T13:34:36;13.73;;;7.38;;
68614;SDS011;55593;51.994;5.882;2023-05-10T13:37:06;10.25;;;7.30;;
68614;SDS011;55593;51.994;5.882;2023-05-10T13:39:35;11.68;;;7.05;;
68614;SDS011;55593;51.994;5.882;2023-05-10T13:42:04;12.43;;;7.50;;
68614;SDS011;55593;51.994;5.882;2023-05-10T13:44:33;11.98;;;8.43;;
68614;SDS011;55593;51.994;5.882;2023-05-10T13:47:07;13.20;;;9.10;;
68614;SDS011;55593;51.994;5.882;2023-05-10T13:49:37;15.48;;;10.88;;
68614;SDS011;55593;51.994;5.882;2023-05-10T13:52:06;14.68;;;10.88;;
68614;SDS011;55593;51.994;5.882;2023-05-10T13:54:35;17.55;;;11.60;;
68614;SDS011;55593;51.994;5.882;2023-05-10T13:57:05;21.83;;;12.25;;
68614;SDS011;55593;51.994;5.882;2023-05-10T13:59:37;19.05;;;12.95;;
68614;SDS011;55593;51.994;5.882;2023-05-10T14:02:09;19.95;;;13.73;;
68614;SDS011;55593;51.994;5.882;2023-05-10T14:04:39;19.23;;;13.90;;
68614;SDS011;55593;51.994;5.882;2023-05-10T14:07:08;15.15;;;12.60;;
68614;SDS011;55593;51.994;5.882;2023-05-10T14:09:37;20.15;;;13.05;;
68614;SDS011;55593;51.994;5.882;2023-05-10T14:12:06;18.05;;;13.48;;
68614;SDS011;55593;51.994;5.882;2023-05-10T14:14:35;17.67;;;14.13;;
68614;SDS011;55593;51.994;5.882;2023-05-10T14:17:04;15.98;;;14.20;;
68614;SDS011;55593;51.994;5.882;2023-05-10T14:19:36;16.73;;;14.95;;
68614;SDS011;55593;51.994;5.882;2023-05-10T14:22:05;19.90;;;15.85;;
68614;SDS011;55593;51.994;5.882;2023-05-10T14:24:34;20.35;;;14.50;;
68614;SDS011;55593;51.994;5.882;2023-05-10T14:27:04;16.27;;;14.02;;
68614;SDS011;55593;51.994;5.882;2023-05-10T14:29:33;16.63;;;13.68;;
68614;SDS011;55593;51.994;5.882;2023-05-10T14:32:02;17.45;;;13.77;;
68614;SDS011;55593;51.994;5.882;2023-05-10T14:34:31;14.35;;;12.57;;
68614;SDS011;55593;51.994;5.882;2023-05-10T14:37:03;14.05;;;11.25;;
68614;SDS011;55593;51.994;5.882;2023-05-10T14:39:32;16.52;;;12.65;;
68614;SDS011;55593;51.994;5.882;2023-05-10T14:42:01;14.60;;;11.85;;
68614;SDS011;55593;51.994;5.882;2023-05-10T14:44:31;12.43;;;9.88;;
68614;SDS011;55593;51.994;5.882;2023-05-10T14:47:00;11.40;;;9.23;;
68614;SDS011;55593;51.994;5.882;2023-05-10T14:49:29;11.55;;;9.25;;
68614;SDS011;55593;51.994;5.882;2023-05-10T14:51:58;10.57;;;8.25;;